createdAt,value
2022-12-23T07:00:15.368Z,15.70
2022-12-23T07:02:43.599Z,21.30
2022-12-23T07:05:11.627Z,15.90
2022-12-23T07:07:39.421Z,16.00
2022-12-23T07:10:08.015Z,15.70
2022-12-23T07:12:35.760Z,13.40
2022-12-23T07:15:03.849Z,16.80
2022-12-23T07:17:32.431Z,15.10
2022-12-23T07:20:00.466Z,16.30
2022-12-23T07:22:28.445Z,15.90
2022-12-23T07:24:56.181Z,15.10
2022-12-23T07:27:23.938Z,17.40
2022-12-23T07:29:52.050Z,16.70
2022-12-23T07:32:20.205Z,18.70
2022-12-23T07:34:48.143Z,18.80
2022-12-23T07:37:16.014Z,22.50
2022-12-23T07:39:43.894Z,21.00
2022-12-23T07:44:59.681Z,19.90
2022-12-23T07:47:27.559Z,18.60
2022-12-23T07:49:55.372Z,19.80
2022-12-23T07:52:23.757Z,28.30
2022-12-23T07:54:51.497Z,18.40
2022-12-23T07:57:19.237Z,18.80
2022-12-23T07:59:47.029Z,18.40
2022-12-23T08:02:14.880Z,19.20
2022-12-23T08:04:46.361Z,20.10
2022-12-23T08:07:14.926Z,21.60
2022-12-23T08:09:42.737Z,20.10
2022-12-23T08:12:10.652Z,21.90
2022-12-23T08:14:38.609Z,19.00
2022-12-23T08:17:07.032Z,22.10
2022-12-23T08:19:34.835Z,22.80
2022-12-23T08:22:02.858Z,23.80
2022-12-23T08:24:31.219Z,25.70
2022-12-23T08:26:59.135Z,20.80
2022-12-23T08:29:30.077Z,20.10
2022-12-23T08:32:02.061Z,21.80
2022-12-23T08:34:29.868Z,18.80
2022-12-23T08:36:57.769Z,24.40
2022-12-23T08:39:25.982Z,23.60
2022-12-23T08:41:54.019Z,23.70
2022-12-23T08:44:22.062Z,20.70
2022-12-23T08:46:50.104Z,19.00
2022-12-23T08:49:18.142Z,18.80
2022-12-23T08:51:47.118Z,22.60
2022-12-23T08:54:16.144Z,21.80
2022-12-23T08:56:44.338Z,21.00
2022-12-23T08:59:19.024Z,18.40
2022-12-23T09:01:48.373Z,22.40
2022-12-23T09:04:17.153Z,19.30
2022-12-23T09:06:45.778Z,22.60
2022-12-23T09:09:15.995Z,20.80
2022-12-23T09:11:44.702Z,24.30
2022-12-23T09:14:12.965Z,37.60
2022-12-23T09:16:41.051Z,26.00
2022-12-23T09:19:09.225Z,20.40
2022-12-23T09:21:40.523Z,25.00
2022-12-23T09:24:08.692Z,22.80
2022-12-23T09:26:36.904Z,21.20
2022-12-23T09:29:05.241Z,22.00
2022-12-23T09:31:37.271Z,18.70
2022-12-23T09:34:06.585Z,21.20
2022-12-23T09:36:34.958Z,22.50
2022-12-23T09:39:04.142Z,24.30
2022-12-23T09:42:01.884Z,23.50
2022-12-23T09:44:58.892Z,21.90
2022-12-23T09:50:17.411Z,24.80
2022-12-23T09:53:00.299Z,18.30
2022-12-23T09:55:52.281Z,29.80
2022-12-23T09:58:34.073Z,24.30
2022-12-23T10:01:45.134Z,21.70
2022-12-23T10:04:22.855Z,21.60
2022-12-23T10:07:12.375Z,20.40
2022-12-23T10:09:44.297Z,24.00
2022-12-23T10:12:39.409Z,24.30
2022-12-23T10:15:32.880Z,18.80
2022-12-23T10:18:07.008Z,28.90
2022-12-23T10:20:48.095Z,26.90
2022-12-23T10:23:37.516Z,26.30
2022-12-23T10:26:24.386Z,27.80
2022-12-23T10:29:20.078Z,22.10
2022-12-23T10:32:19.035Z,20.80
2022-12-23T10:35:22.408Z,27.80
2022-12-23T10:38:08.073Z,24.30
2022-12-23T10:41:08.856Z,24.20
2022-12-23T10:43:46.172Z,21.00
2022-12-23T10:46:35.363Z,25.30
2022-12-23T10:49:08.276Z,20.80
2022-12-23T10:51:56.683Z,22.20
2022-12-23T10:54:30.991Z,26.40
2022-12-23T10:56:59.703Z,17.50
2022-12-23T10:59:31.239Z,25.70
2022-12-23T11:02:06.731Z,19.90
2022-12-23T11:04:37.100Z,18.90
2022-12-23T11:07:42.087Z,19.20
2022-12-23T11:10:18.031Z,28.60
2022-12-23T11:12:49.678Z,23.90
2022-12-23T11:15:33.150Z,25.70
2022-12-23T11:18:21.784Z,19.80
2022-12-23T11:21:07.632Z,18.60
2022-12-23T11:23:36.786Z,19.40
2022-12-23T11:26:11.556Z,23.50
2022-12-23T11:28:51.311Z,21.90
2022-12-23T11:31:28.788Z,22.80
2022-12-23T11:34:00.971Z,24.20
2022-12-23T11:36:30.381Z,23.70
2022-12-23T11:39:20.682Z,21.80
2022-12-23T11:41:52.765Z,18.60
2022-12-23T11:44:23.546Z,25.90
2022-12-23T11:46:52.217Z,25.00
2022-12-23T11:49:25.098Z,23.40
2022-12-23T11:52:02.095Z,23.50
2022-12-23T11:54:30.146Z,19.70
2022-12-23T11:57:00.871Z,20.60
2022-12-23T11:59:44.933Z,23.10
2022-12-23T12:05:00.852Z,23.10
2022-12-23T12:07:30.818Z,20.80
2022-12-23T12:10:01.443Z,16.10
2022-12-23T12:12:30.387Z,22.60
2022-12-23T12:15:00.072Z,20.40
2022-12-23T12:17:37.485Z,24.90
2022-12-23T12:20:21.005Z,24.00
2022-12-23T12:22:55.602Z,20.90
2022-12-23T12:25:55.140Z,26.10
2022-12-23T12:28:28.394Z,24.80
2022-12-23T12:31:06.152Z,19.40
2022-12-23T12:33:39.621Z,23.80
2022-12-23T12:36:16.056Z,24.10
2022-12-23T12:38:48.082Z,23.80
2022-12-23T12:41:39.898Z,20.40
2022-12-23T12:44:23.954Z,24.50
2022-12-23T12:47:16.008Z,24.10
2022-12-23T12:49:59.163Z,25.60
2022-12-23T12:52:28.419Z,22.20
2022-12-23T12:55:13.984Z,21.30
2022-12-23T12:57:42.243Z,20.00
2022-12-23T13:00:19.787Z,21.90
2022-12-23T13:02:47.871Z,22.50
2022-12-23T13:05:32.885Z,28.10
2022-12-23T13:08:29.099Z,20.50
2022-12-23T13:11:44.086Z,21.70
2022-12-23T13:14:27.705Z,22.50
2022-12-23T13:17:13.782Z,23.60
2022-12-23T13:20:16.315Z,23.80
2022-12-23T13:22:49.376Z,24.60
2022-12-23T13:25:34.306Z,25.10
2022-12-23T13:28:23.727Z,23.80
2022-12-23T13:31:01.933Z,27.40
2022-12-23T13:34:08.859Z,21.20
2022-12-23T13:37:08.120Z,24.60
2022-12-23T13:39:50.742Z,23.10
2022-12-23T13:42:29.307Z,21.30
2022-12-23T13:44:59.357Z,20.60
2022-12-23T13:47:36.322Z,22.50
2022-12-23T13:50:24.048Z,23.90
2022-12-23T13:53:13.356Z,20.30
2022-12-23T13:56:20.908Z,33.00
2022-12-23T13:58:50.970Z,33.40
2022-12-23T14:01:34.306Z,29.10
2022-12-23T14:04:37.652Z,27.90
2022-12-23T14:07:20.884Z,27.10
2022-12-23T14:09:58.366Z,26.10
2022-12-23T14:12:35.983Z,24.10
2022-12-23T14:15:19.872Z,25.50
2022-12-23T14:17:54.064Z,29.60
2022-12-23T14:20:50.508Z,32.60
2022-12-23T14:23:52.164Z,45.80
2022-12-23T14:26:49.238Z,24.50
2022-12-23T14:30:05.211Z,24.30
2022-12-23T14:32:50.464Z,26.80
2022-12-23T14:35:44.893Z,23.90
2022-12-23T14:38:15.937Z,19.50
2022-12-23T14:40:44.102Z,24.20
2022-12-23T14:43:31.398Z,22.60
2022-12-23T14:46:05.246Z,25.00
2022-12-23T14:48:37.121Z,20.20
2022-12-23T14:51:11.371Z,20.30
2022-12-23T14:53:52.271Z,17.90
2022-12-23T14:56:20.234Z,18.70
2022-12-23T14:59:05.399Z,20.60
2022-12-23T15:01:43.154Z,19.90
2022-12-23T15:04:14.086Z,19.10
2022-12-23T15:06:45.442Z,21.20
2022-12-23T15:12:42.477Z,20.50
2022-12-23T15:15:15.683Z,20.10
2022-12-23T15:17:43.851Z,22.40
2022-12-23T15:20:21.222Z,24.30
2022-12-23T15:22:49.785Z,20.50
2022-12-23T15:25:26.975Z,20.60
2022-12-23T15:28:01.555Z,17.50
2022-12-23T15:30:35.783Z,15.90
2022-12-23T15:33:27.989Z,16.10
2022-12-23T15:35:57.691Z,19.90
2022-12-23T15:38:31.256Z,19.60
2022-12-23T15:41:02.503Z,21.20
2022-12-23T15:43:30.929Z,19.20
2022-12-23T15:46:09.628Z,19.10
2022-12-23T15:48:38.465Z,18.50
2022-12-23T15:51:12.968Z,18.40
2022-12-23T15:53:44.355Z,22.80
2022-12-23T15:56:26.311Z,23.50
2022-12-23T15:58:56.646Z,29.20
2022-12-23T16:01:26.592Z,40.70
2022-12-23T16:03:59.933Z,36.00
2022-12-23T16:06:33.150Z,26.80
2022-12-23T16:09:04.734Z,22.90
2022-12-23T16:11:49.050Z,24.10
2022-12-23T16:14:38.934Z,24.90
2022-12-23T16:17:10.491Z,23.40
2022-12-23T16:19:53.219Z,23.10
2022-12-23T16:22:21.532Z,21.80
2022-12-23T16:25:01.349Z,19.30
2022-12-23T16:27:41.185Z,19.20
2022-12-23T16:30:33.103Z,23.20
2022-12-23T16:33:07.423Z,18.50
2022-12-23T16:35:44.048Z,24.20
2022-12-23T16:38:19.627Z,19.50
2022-12-23T16:41:00.098Z,23.90
2022-12-23T16:43:28.173Z,29.50
2022-12-23T16:45:57.677Z,20.30
2022-12-23T16:48:36.278Z,24.40
2022-12-23T16:51:12.759Z,25.30
2022-12-23T16:53:40.764Z,25.80
2022-12-23T16:56:16.177Z,25.40
2022-12-23T16:58:44.751Z,24.00
2022-12-23T17:01:38.721Z,23.60
2022-12-23T17:04:08.348Z,26.80
2022-12-23T17:06:37.465Z,29.70
2022-12-23T17:09:08.410Z,29.20
2022-12-23T17:11:41.621Z,31.50
2022-12-23T17:14:23.191Z,23.00
2022-12-23T17:16:51.963Z,26.50
2022-12-23T17:19:27.779Z,28.20
2022-12-23T17:22:01.707Z,29.80
2022-12-23T17:24:30.164Z,25.80
2022-12-23T17:26:59.234Z,32.70
2022-12-23T17:29:28.297Z,25.50
2022-12-23T17:31:56.304Z,26.80
2022-12-23T17:34:24.663Z,24.20
2022-12-23T17:36:53.291Z,21.40
2022-12-23T17:39:22.292Z,20.70
2022-12-23T17:41:51.147Z,18.80
2022-12-23T17:44:19.346Z,18.80
2022-12-23T17:46:48.045Z,20.20
2022-12-23T17:49:16.021Z,23.10
2022-12-23T17:51:44.167Z,23.80
2022-12-23T17:54:24.586Z,20.20
2022-12-23T17:56:53.148Z,18.70
2022-12-23T17:59:21.916Z,24.10
2022-12-23T18:01:50.452Z,23.40
2022-12-23T18:04:18.600Z,20.10
2022-12-23T18:06:46.698Z,19.20
2022-12-23T18:09:14.979Z,24.20
2022-12-23T18:11:46.763Z,23.00
2022-12-23T18:14:18.615Z,22.40
2022-12-23T18:16:46.879Z,16.70
2022-12-23T18:19:20.566Z,17.70
2022-12-23T18:21:49.877Z,18.00
2022-12-23T18:24:18.939Z,15.80
2022-12-23T18:26:47.840Z,14.00
2022-12-23T18:29:15.829Z,14.40
2022-12-23T18:31:51.586Z,13.00
2022-12-23T18:34:20.326Z,11.60
2022-12-23T18:36:48.856Z,14.80
2022-12-23T18:39:17.047Z,11.70
2022-12-23T18:41:45.006Z,14.00
2022-12-23T18:44:20.793Z,14.40
2022-12-23T18:46:50.239Z,12.00
2022-12-23T18:49:18.346Z,13.60
2022-12-23T18:51:46.857Z,17.40
2022-12-23T18:54:16.216Z,20.00
2022-12-23T18:56:44.566Z,15.30
2022-12-23T18:59:16.840Z,13.60
2022-12-23T19:01:44.892Z,16.40
2022-12-23T19:04:13.830Z,16.70
2022-12-23T19:06:41.760Z,15.50
2022-12-23T19:09:15.933Z,14.30
2022-12-23T19:11:45.678Z,14.00
2022-12-23T19:14:13.758Z,15.40
2022-12-23T19:16:46.041Z,14.80
2022-12-23T19:19:17.113Z,17.50
2022-12-23T19:21:44.896Z,14.70
2022-12-23T19:24:12.708Z,13.00
2022-12-23T19:26:40.529Z,16.30
2022-12-23T19:29:09.884Z,16.80
2022-12-23T19:31:37.854Z,15.80
2022-12-23T19:34:09.746Z,12.60
2022-12-23T19:36:42.984Z,19.60
2022-12-23T19:39:16.995Z,20.20
2022-12-23T19:41:45.853Z,18.60
2022-12-23T19:44:14.943Z,22.40
2022-12-23T19:46:43.522Z,17.80
2022-12-23T19:49:19.314Z,23.30
2022-12-23T19:51:48.719Z,22.60
2022-12-23T19:54:18.085Z,22.10
2022-12-23T19:56:46.360Z,23.90
2022-12-23T19:59:14.438Z,24.50
2022-12-23T20:01:42.683Z,25.90
2022-12-23T20:04:11.306Z,25.80
2022-12-23T20:06:41.526Z,27.30
2022-12-23T20:09:12.128Z,26.90
2022-12-23T20:11:43.031Z,25.50
2022-12-23T20:14:12.184Z,29.30
2022-12-23T20:16:40.536Z,23.50
2022-12-23T20:19:08.373Z,24.30
2022-12-23T20:21:37.628Z,26.90
2022-12-23T20:24:06.735Z,29.10
2022-12-23T20:26:34.666Z,35.00
2022-12-23T20:29:02.584Z,40.00
2022-12-23T20:31:32.800Z,34.40
2022-12-23T20:34:01.785Z,25.90
2022-12-23T20:36:32.861Z,31.00
2022-12-23T20:39:02.125Z,15.30
2022-12-23T20:41:31.374Z,24.00
2022-12-23T20:46:47.872Z,21.20
2022-12-23T20:49:15.649Z,23.90
2022-12-23T20:51:43.475Z,29.00
2022-12-23T20:54:11.415Z,22.20
2022-12-23T20:56:39.199Z,22.00
2022-12-23T20:59:07.026Z,24.90
2022-12-23T21:01:38.341Z,31.00
2022-12-23T21:04:13.268Z,28.10
2022-12-23T21:06:41.516Z,34.70
2022-12-23T21:09:12.412Z,26.60
2022-12-23T21:11:43.894Z,31.30
2022-12-23T21:16:39.924Z,38.80
2022-12-23T21:19:13.127Z,33.80
2022-12-23T21:21:40.972Z,30.30
2022-12-23T21:24:10.487Z,27.10
2022-12-23T21:26:38.647Z,35.90
2022-12-23T21:29:08.272Z,30.80
2022-12-23T21:31:39.316Z,24.70
2022-12-23T21:34:08.182Z,28.90
2022-12-23T21:36:38.098Z,17.40
2022-12-23T21:39:06.992Z,32.10
2022-12-23T21:41:37.675Z,31.80
2022-12-23T21:44:05.692Z,30.90
2022-12-23T21:46:34.203Z,33.30
2022-12-23T21:49:02.998Z,33.90
2022-12-23T21:51:39.445Z,34.60
2022-12-23T21:54:12.756Z,32.80
2022-12-23T21:56:41.610Z,39.10
2022-12-23T21:59:14.048Z,39.50
